sensor_id;sensor_type;location;lat;lon;timestamp;P1;durP1;ratioP1;P2;durP2;ratioP2
75935;SDS011;64614;32.062;34.834;2023-05-08T00:00:38;6.55;;;2.65;;
75935;SDS011;64614;32.062;34.834;2023-05-08T00:03:04;5.72;;;2.70;;
75935;SDS011;64614;32.062;34.834;2023-05-08T00:05:30;5.32;;;2.70;;
75935;SDS011;64614;32.062;34.834;2023-05-08T00:07:56;6.00;;;2.80;;
75935;SDS011;64614;32.062;34.834;2023-05-08T00:10:28;7.60;;;2.95;;
75935;SDS011;64614;32.062;34.834;2023-05-08T00:12:55;6.95;;;3.10;;
75935;SDS011;64614;32.062;34.834;2023-05-08T00:15:21;7.03;;;3.03;;
75935;SDS011;64614;32.062;34.834;2023-05-08T00:17:46;7.28;;;3.08;;
75935;SDS011;64614;32.062;34.834;2023-05-08T00:20:12;6.65;;;3.03;;
75935;SDS011;64614;32.062;34.834;2023-05-08T00:22:38;6.88;;;3.08;;
75935;SDS011;64614;32.062;34.834;2023-05-08T00:25:04;6.63;;;3.28;;
75935;SDS011;64614;32.062;34.834;2023-05-08T00:27:30;7.93;;;3.50;;
75935;SDS011;64614;32.062;34.834;2023-05-08T00:29:57;7.78;;;3.22;;
75935;SDS011;64614;32.062;34.834;2023-05-08T00:32:23;5.97;;;2.95;;
75935;SDS011;64614;32.062;34.834;2023-05-08T00:34:49;7.65;;;3.67;;
75935;SDS011;64614;32.062;34.834;2023-05-08T00:37:15;7.32;;;3.42;;
75935;SDS011;64614;32.062;34.834;2023-05-08T00:39:41;8.65;;;3.55;;
75935;SDS011;64614;32.062;34.834;2023-05-08T00:42:07;7.30;;;3.45;;
75935;SDS011;64614;32.062;34.834;2023-05-08T00:44:32;7.18;;;3.80;;
75935;SDS011;64614;32.062;34.834;2023-05-08T00:46:58;10.73;;;3.70;;
75935;SDS011;64614;32.062;34.834;2023-05-08T00:49:24;7.65;;;3.63;;
75935;SDS011;64614;32.062;34.834;2023-05-08T00:51:51;7.55;;;3.90;;
75935;SDS011;64614;32.062;34.834;2023-05-08T00:56:46;7.57;;;3.75;;
75935;SDS011;64614;32.062;34.834;2023-05-08T00:59:13;8.20;;;3.40;;
75935;SDS011;64614;32.062;34.834;2023-05-08T01:01:42;6.93;;;3.60;;
75935;SDS011;64614;32.062;34.834;2023-05-08T01:04:08;7.22;;;3.58;;
75935;SDS011;64614;32.062;34.834;2023-05-08T01:06:34;7.80;;;3.92;;
75935;SDS011;64614;32.062;34.834;2023-05-08T01:09:01;9.07;;;4.13;;
75935;SDS011;64614;32.062;34.834;2023-05-08T01:19:50;9.57;;;4.10;;
75935;SDS011;64614;32.062;34.834;2023-05-08T01:27:54;8.93;;;3.97;;
75935;SDS011;64614;32.062;34.834;2023-05-08T01:36:24;9.02;;;4.50;;
75935;SDS011;64614;32.062;34.834;2023-05-08T01:39:17;9.23;;;4.63;;
75935;SDS011;64614;32.062;34.834;2023-05-08T01:42:00;8.65;;;4.00;;
75935;SDS011;64614;32.062;34.834;2023-05-08T01:44:34;10.27;;;4.65;;
75935;SDS011;64614;32.062;34.834;2023-05-08T01:47:08;9.98;;;4.50;;
75935;SDS011;64614;32.062;34.834;2023-05-08T01:49:37;9.40;;;4.65;;
75935;SDS011;64614;32.062;34.834;2023-05-08T01:52:08;12.00;;;5.20;;
75935;SDS011;64614;32.062;34.834;2023-05-08T01:54:40;8.45;;;4.50;;
75935;SDS011;64614;32.062;34.834;2023-05-08T01:57:11;9.98;;;4.60;;
75935;SDS011;64614;32.062;34.834;2023-05-08T01:59:38;9.63;;;4.90;;
75935;SDS011;64614;32.062;34.834;2023-05-08T02:02:07;9.93;;;4.75;;
75935;SDS011;64614;32.062;34.834;2023-05-08T02:04:34;9.10;;;4.50;;
75935;SDS011;64614;32.062;34.834;2023-05-08T02:07:01;9.85;;;5.00;;
75935;SDS011;64614;32.062;34.834;2023-05-08T02:09:28;8.15;;;4.53;;
75935;SDS011;64614;32.062;34.834;2023-05-08T02:11:55;8.45;;;4.32;;
75935;SDS011;64614;32.062;34.834;2023-05-08T02:14:22;11.23;;;4.85;;
75935;SDS011;64614;32.062;34.834;2023-05-08T02:16:51;10.18;;;4.82;;
75935;SDS011;64614;32.062;34.834;2023-05-08T02:19:20;9.05;;;4.55;;
75935;SDS011;64614;32.062;34.834;2023-05-08T02:21:47;11.88;;;4.85;;
75935;SDS011;64614;32.062;34.834;2023-05-08T02:24:16;8.88;;;4.55;;
75935;SDS011;64614;32.062;34.834;2023-05-08T02:26:43;8.95;;;4.43;;
75935;SDS011;64614;32.062;34.834;2023-05-08T02:29:10;9.50;;;5.05;;
75935;SDS011;64614;32.062;34.834;2023-05-08T02:31:36;9.00;;;4.78;;
75935;SDS011;64614;32.062;34.834;2023-05-08T02:34:03;10.63;;;5.00;;
75935;SDS011;64614;32.062;34.834;2023-05-08T02:36:30;9.52;;;4.57;;
75935;SDS011;64614;32.062;34.834;2023-05-08T02:38:58;8.38;;;4.25;;
75935;SDS011;64614;32.062;34.834;2023-05-08T02:41:26;8.38;;;4.20;;
75935;SDS011;64614;32.062;34.834;2023-05-08T02:43:54;8.55;;;4.32;;
75935;SDS011;64614;32.062;34.834;2023-05-08T02:48:56;8.85;;;4.22;;
75935;SDS011;64614;32.062;34.834;2023-05-08T02:54:07;9.45;;;4.35;;
75935;SDS011;64614;32.062;34.834;2023-05-08T02:59:43;8.52;;;4.50;;
75935;SDS011;64614;32.062;34.834;2023-05-08T03:02:14;8.65;;;4.45;;
75935;SDS011;64614;32.062;34.834;2023-05-08T03:04:49;9.65;;;4.90;;
75935;SDS011;64614;32.062;34.834;2023-05-08T03:07:20;9.10;;;4.47;;
75935;SDS011;64614;32.062;34.834;2023-05-08T03:09:50;8.88;;;4.45;;
75935;SDS011;64614;32.062;34.834;2023-05-08T03:12:27;9.73;;;4.40;;
75935;SDS011;64614;32.062;34.834;2023-05-08T03:15:02;8.57;;;4.60;;
75935;SDS011;64614;32.062;34.834;2023-05-08T03:19:59;8.10;;;4.40;;
75935;SDS011;64614;32.062;34.834;2023-05-08T03:22:33;8.07;;;4.35;;
75935;SDS011;64614;32.062;34.834;2023-05-08T03:25:01;11.48;;;4.53;;
75935;SDS011;64614;32.062;34.834;2023-05-08T03:27:29;8.65;;;4.50;;
75935;SDS011;64614;32.062;34.834;2023-05-08T03:29:57;9.10;;;4.72;;
75935;SDS011;64614;32.062;34.834;2023-05-08T03:32:26;10.55;;;4.90;;
75935;SDS011;64614;32.062;34.834;2023-05-08T03:34:54;8.88;;;4.75;;
75935;SDS011;64614;32.062;34.834;2023-05-08T03:39:49;10.73;;;5.70;;
75935;SDS011;64614;32.062;34.834;2023-05-08T03:42:16;12.25;;;5.65;;
75935;SDS011;64614;32.062;34.834;2023-05-08T03:44:51;11.18;;;5.97;;
75935;SDS011;64614;32.062;34.834;2023-05-08T03:47:18;11.48;;;5.82;;
75935;SDS011;64614;32.062;34.834;2023-05-08T03:49:45;12.73;;;6.22;;
75935;SDS011;64614;32.062;34.834;2023-05-08T03:52:14;12.77;;;6.40;;
75935;SDS011;64614;32.062;34.834;2023-05-08T03:54:40;13.02;;;6.03;;
75935;SDS011;64614;32.062;34.834;2023-05-08T03:57:06;12.02;;;5.47;;
75935;SDS011;64614;32.062;34.834;2023-05-08T03:59:37;12.43;;;5.50;;
75935;SDS011;64614;32.062;34.834;2023-05-08T04:02:23;13.45;;;6.18;;
75935;SDS011;64614;32.062;34.834;2023-05-08T04:05:04;13.85;;;5.70;;
75935;SDS011;64614;32.062;34.834;2023-05-08T04:07:42;12.40;;;5.65;;
75935;SDS011;64614;32.062;34.834;2023-05-08T04:10:23;13.65;;;6.10;;
75935;SDS011;64614;32.062;34.834;2023-05-08T04:15:51;10.95;;;5.40;;
75935;SDS011;64614;32.062;34.834;2023-05-08T04:18:27;13.27;;;5.97;;
75935;SDS011;64614;32.062;34.834;2023-05-08T04:21:01;12.40;;;5.85;;
75935;SDS011;64614;32.062;34.834;2023-05-08T04:23:32;14.15;;;5.75;;
75935;SDS011;64614;32.062;34.834;2023-05-08T04:26:01;9.82;;;5.38;;
75935;SDS011;64614;32.062;34.834;2023-05-08T04:28:30;12.52;;;5.40;;
75935;SDS011;64614;32.062;34.834;2023-05-08T04:30:57;12.60;;;5.93;;
75935;SDS011;64614;32.062;34.834;2023-05-08T04:33:23;14.38;;;5.82;;
75935;SDS011;64614;32.062;34.834;2023-05-08T04:35:49;13.18;;;5.60;;
75935;SDS011;64614;32.062;34.834;2023-05-08T04:38:15;12.00;;;5.43;;
75935;SDS011;64614;32.062;34.834;2023-05-08T04:40:41;11.07;;;4.93;;
75935;SDS011;64614;32.062;34.834;2023-05-08T04:43:06;11.35;;;5.13;;
75935;SDS011;64614;32.062;34.834;2023-05-08T04:45:32;11.98;;;5.05;;
75935;SDS011;64614;32.062;34.834;2023-05-08T04:47:58;10.52;;;5.13;;
75935;SDS011;64614;32.062;34.834;2023-05-08T04:50:23;10.70;;;5.10;;
75935;SDS011;64614;32.062;34.834;2023-05-08T04:52:49;10.15;;;5.43;;
75935;SDS011;64614;32.062;34.834;2023-05-08T04:55:15;9.45;;;4.95;;
75935;SDS011;64614;32.062;34.834;2023-05-08T04:57:41;8.98;;;4.75;;
75935;SDS011;64614;32.062;34.834;2023-05-08T05:00:06;10.70;;;4.82;;
75935;SDS011;64614;32.062;34.834;2023-05-08T05:02:33;11.90;;;4.88;;
75935;SDS011;64614;32.062;34.834;2023-05-08T05:04:58;10.73;;;4.28;;
75935;SDS011;64614;32.062;34.834;2023-05-08T05:10:00;8.73;;;4.47;;
75935;SDS011;64614;32.062;34.834;2023-05-08T05:12:26;9.50;;;4.80;;
75935;SDS011;64614;32.062;34.834;2023-05-08T05:14:52;10.32;;;4.50;;
75935;SDS011;64614;32.062;34.834;2023-05-08T05:17:17;10.80;;;5.03;;
75935;SDS011;64614;32.062;34.834;2023-05-08T05:19:43;8.20;;;4.32;;
75935;SDS011;64614;32.062;34.834;2023-05-08T05:22:08;9.68;;;4.28;;
75935;SDS011;64614;32.062;34.834;2023-05-08T05:24:34;8.20;;;3.92;;
75935;SDS011;64614;32.062;34.834;2023-05-08T05:27:02;8.40;;;4.30;;
75935;SDS011;64614;32.062;34.834;2023-05-08T05:29:28;7.93;;;3.85;;
75935;SDS011;64614;32.062;34.834;2023-05-08T05:31:54;8.20;;;4.15;;
75935;SDS011;64614;32.062;34.834;2023-05-08T05:34:20;9.48;;;4.07;;
75935;SDS011;64614;32.062;34.834;2023-05-08T05:36:45;9.43;;;4.00;;
75935;SDS011;64614;32.062;34.834;2023-05-08T05:39:11;8.93;;;4.18;;
75935;SDS011;64614;32.062;34.834;2023-05-08T05:41:37;8.23;;;4.22;;
75935;SDS011;64614;32.062;34.834;2023-05-08T05:44:06;7.95;;;3.95;;
75935;SDS011;64614;32.062;34.834;2023-05-08T05:46:31;8.07;;;4.10;;
75935;SDS011;64614;32.062;34.834;2023-05-08T05:48:57;8.50;;;3.95;;
75935;SDS011;64614;32.062;34.834;2023-05-08T05:51:23;9.13;;;3.78;;
75935;SDS011;64614;32.062;34.834;2023-05-08T05:53:49;9.27;;;3.63;;
75935;SDS011;64614;32.062;34.834;2023-05-08T05:56:14;8.48;;;3.83;;
75935;SDS011;64614;32.062;34.834;2023-05-08T05:58:40;7.65;;;3.75;;
75935;SDS011;64614;32.062;34.834;2023-05-08T06:01:09;7.63;;;3.30;;
75935;SDS011;64614;32.062;34.834;2023-05-08T06:03:35;8.68;;;3.72;;
75935;SDS011;64614;32.062;34.834;2023-05-08T06:06:01;7.40;;;3.42;;
75935;SDS011;64614;32.062;34.834;2023-05-08T06:08:28;8.23;;;3.50;;
75935;SDS011;64614;32.062;34.834;2023-05-08T06:10:53;7.82;;;3.80;;
75935;SDS011;64614;32.062;34.834;2023-05-08T06:13:19;9.30;;;3.78;;
75935;SDS011;64614;32.062;34.834;2023-05-08T06:15:45;8.25;;;3.72;;
75935;SDS011;64614;32.062;34.834;2023-05-08T06:18:10;8.65;;;3.53;;
75935;SDS011;64614;32.062;34.834;2023-05-08T06:20:36;7.68;;;3.15;;
75935;SDS011;64614;32.062;34.834;2023-05-08T06:23:03;7.13;;;3.20;;
75935;SDS011;64614;32.062;34.834;2023-05-08T06:25:29;7.28;;;3.33;;
75935;SDS011;64614;32.062;34.834;2023-05-08T06:27:55;7.55;;;3.60;;
75935;SDS011;64614;32.062;34.834;2023-05-08T06:30:21;6.72;;;3.35;;
75935;SDS011;64614;32.062;34.834;2023-05-08T06:32:47;7.00;;;3.40;;
75935;SDS011;64614;32.062;34.834;2023-05-08T06:35:12;7.63;;;3.53;;
75935;SDS011;64614;32.062;34.834;2023-05-08T06:37:42;8.10;;;3.15;;
75935;SDS011;64614;32.062;34.834;2023-05-08T06:40:09;8.07;;;3.25;;
75935;SDS011;64614;32.062;34.834;2023-05-08T06:42:35;5.72;;;2.83;;
75935;SDS011;64614;32.062;34.834;2023-05-08T06:45:01;4.75;;;2.50;;
75935;SDS011;64614;32.062;34.834;2023-05-08T06:47:27;7.30;;;3.00;;
75935;SDS011;64614;32.062;34.834;2023-05-08T06:49:53;5.90;;;2.83;;
75935;SDS011;64614;32.062;34.834;2023-05-08T06:52:18;6.55;;;2.90;;
75935;SDS011;64614;32.062;34.834;2023-05-08T06:54:45;4.72;;;2.70;;
75935;SDS011;64614;32.062;34.834;2023-05-08T06:57:11;5.90;;;3.05;;
75935;SDS011;64614;32.062;34.834;2023-05-08T06:59:38;6.40;;;2.97;;
75935;SDS011;64614;32.062;34.834;2023-05-08T07:02:04;5.30;;;2.90;;
75935;SDS011;64614;32.062;34.834;2023-05-08T07:04:30;8.02;;;3.15;;
75935;SDS011;64614;32.062;34.834;2023-05-08T07:06:57;5.43;;;3.05;;
75935;SDS011;64614;32.062;34.834;2023-05-08T07:09:23;5.72;;;3.03;;
75935;SDS011;64614;32.062;34.834;2023-05-08T07:11:48;6.20;;;2.90;;
75935;SDS011;64614;32.062;34.834;2023-05-08T07:22:10;6.82;;;2.80;;
75935;SDS011;64614;32.062;34.834;2023-05-08T07:24:36;5.85;;;2.90;;
75935;SDS011;64614;32.062;34.834;2023-05-08T07:27:02;5.90;;;3.08;;
75935;SDS011;64614;32.062;34.834;2023-05-08T07:29:27;5.05;;;3.00;;
75935;SDS011;64614;32.062;34.834;2023-05-08T07:31:53;5.68;;;3.03;;
75935;SDS011;64614;32.062;34.834;2023-05-08T07:34:19;6.22;;;2.90;;
75935;SDS011;64614;32.062;34.834;2023-05-08T07:36:45;7.68;;;3.20;;
75935;SDS011;64614;32.062;34.834;2023-05-08T07:39:10;5.35;;;3.10;;
75935;SDS011;64614;32.062;34.834;2023-05-08T07:41:36;5.57;;;2.85;;
75935;SDS011;64614;32.062;34.834;2023-05-08T07:44:04;7.18;;;3.10;;
75935;SDS011;64614;32.062;34.834;2023-05-08T07:46:30;5.32;;;3.10;;
75935;SDS011;64614;32.062;34.834;2023-05-08T07:48:56;7.43;;;3.25;;
75935;SDS011;64614;32.062;34.834;2023-05-08T07:51:21;5.20;;;2.72;;
75935;SDS011;64614;32.062;34.834;2023-05-08T07:53:47;6.78;;;3.00;;
75935;SDS011;64614;32.062;34.834;2023-05-08T07:56:15;6.05;;;3.20;;
75935;SDS011;64614;32.062;34.834;2023-05-08T07:58:40;5.78;;;3.00;;
75935;SDS011;64614;32.062;34.834;2023-05-08T08:01:06;6.18;;;3.10;;
75935;SDS011;64614;32.062;34.834;2023-05-08T08:03:32;6.22;;;3.28;;
75935;SDS011;64614;32.062;34.834;2023-05-08T08:05:58;6.13;;;2.95;;
75935;SDS011;64614;32.062;34.834;2023-05-08T08:08:23;5.97;;;2.92;;
75935;SDS011;64614;32.062;34.834;2023-05-08T08:10:49;6.35;;;3.03;;
75935;SDS011;64614;32.062;34.834;2023-05-08T08:13:15;5.35;;;3.15;;
75935;SDS011;64614;32.062;34.834;2023-05-08T08:15:41;4.45;;;2.80;;
75935;SDS011;64614;32.062;34.834;2023-05-08T08:18:08;4.90;;;3.08;;
75935;SDS011;64614;32.062;34.834;2023-05-08T08:20:34;5.40;;;3.00;;
75935;SDS011;64614;32.062;34.834;2023-05-08T08:23:00;5.28;;;2.75;;
75935;SDS011;64614;32.062;34.834;2023-05-08T08:25:25;5.72;;;3.00;;
75935;SDS011;64614;32.062;34.834;2023-05-08T08:27:51;5.90;;;2.70;;
75935;SDS011;64614;32.062;34.834;2023-05-08T08:30:17;4.78;;;2.83;;
75935;SDS011;64614;32.062;34.834;2023-05-08T08:32:43;5.75;;;3.08;;
75935;SDS011;64614;32.062;34.834;2023-05-08T08:35:09;4.95;;;2.88;;
75935;SDS011;64614;32.062;34.834;2023-05-08T08:37:35;5.40;;;3.08;;
75935;SDS011;64614;32.062;34.834;2023-05-08T08:40:00;5.68;;;2.80;;
75935;SDS011;64614;32.062;34.834;2023-05-08T08:42:26;5.05;;;2.97;;
75935;SDS011;64614;32.062;34.834;2023-05-08T08:44:54;4.95;;;3.00;;
75935;SDS011;64614;32.062;34.834;2023-05-08T08:47:21;5.78;;;2.90;;
75935;SDS011;64614;32.062;34.834;2023-05-08T08:49:52;5.65;;;2.78;;
75935;SDS011;64614;32.062;34.834;2023-05-08T08:52:29;4.97;;;2.80;;
75935;SDS011;64614;32.062;34.834;2023-05-08T08:54:56;5.28;;;3.10;;
75935;SDS011;64614;32.062;34.834;2023-05-08T08:57:26;5.47;;;2.90;;
75935;SDS011;64614;32.062;34.834;2023-05-08T08:59:57;5.30;;;2.88;;
75935;SDS011;64614;32.062;34.834;2023-05-08T09:02:28;5.55;;;3.10;;
75935;SDS011;64614;32.062;34.834;2023-05-08T09:04:56;4.53;;;2.90;;
75935;SDS011;64614;32.062;34.834;2023-05-08T09:07:22;5.50;;;2.83;;
75935;SDS011;64614;32.062;34.834;2023-05-08T09:09:50;5.35;;;3.03;;
75935;SDS011;64614;32.062;34.834;2023-05-08T09:12:17;5.57;;;2.85;;
75935;SDS011;64614;32.062;34.834;2023-05-08T09:14:42;5.25;;;2.92;;
75935;SDS011;64614;32.062;34.834;2023-05-08T09:17:09;5.93;;;3.00;;
75935;SDS011;64614;32.062;34.834;2023-05-08T09:19:35;5.28;;;3.03;;
75935;SDS011;64614;32.062;34.834;2023-05-08T09:22:02;4.80;;;2.80;;
75935;SDS011;64614;32.062;34.834;2023-05-08T09:24:52;5.65;;;3.13;;
75935;SDS011;64614;32.062;34.834;2023-05-08T09:27:23;6.32;;;3.13;;
75935;SDS011;64614;32.062;34.834;2023-05-08T09:30:03;4.85;;;2.63;;
75935;SDS011;64614;32.062;34.834;2023-05-08T09:32:30;4.57;;;2.92;;
75935;SDS011;64614;32.062;34.834;2023-05-08T09:34:57;5.15;;;2.72;;
75935;SDS011;64614;32.062;34.834;2023-05-08T09:37:24;5.97;;;3.33;;
75935;SDS011;64614;32.062;34.834;2023-05-08T09:39:53;5.80;;;3.13;;
75935;SDS011;64614;32.062;34.834;2023-05-08T09:42:19;4.68;;;2.67;;
75935;SDS011;64614;32.062;34.834;2023-05-08T09:44:52;5.75;;;2.80;;
75935;SDS011;64614;32.062;34.834;2023-05-08T09:47:21;5.88;;;3.00;;
75935;SDS011;64614;32.062;34.834;2023-05-08T09:49:57;5.97;;;2.97;;
75935;SDS011;64614;32.062;34.834;2023-05-08T09:52:27;5.82;;;3.10;;
75935;SDS011;64614;32.062;34.834;2023-05-08T09:54:57;4.80;;;2.80;;
75935;SDS011;64614;32.062;34.834;2023-05-08T09:57:25;5.93;;;2.88;;
75935;SDS011;64614;32.062;34.834;2023-05-08T09:59:59;6.20;;;3.00;;
75935;SDS011;64614;32.062;34.834;2023-05-08T10:02:35;5.20;;;2.88;;
75935;SDS011;64614;32.062;34.834;2023-05-08T10:05:03;4.43;;;2.80;;
75935;SDS011;64614;32.062;34.834;2023-05-08T10:07:46;5.30;;;3.00;;
75935;SDS011;64614;32.062;34.834;2023-05-08T10:10:12;4.50;;;2.58;;
75935;SDS011;64614;32.062;34.834;2023-05-08T10:12:38;5.65;;;2.90;;
75935;SDS011;64614;32.062;34.834;2023-05-08T10:15:06;5.30;;;2.90;;
75935;SDS011;64614;32.062;34.834;2023-05-08T10:18:06;7.35;;;3.70;;
75935;SDS011;64614;32.062;34.834;2023-05-08T10:20:31;7.38;;;3.17;;
75935;SDS011;64614;32.062;34.834;2023-05-08T10:22:59;5.07;;;2.95;;
75935;SDS011;64614;32.062;34.834;2023-05-08T10:25:27;8.70;;;3.20;;
75935;SDS011;64614;32.062;34.834;2023-05-08T10:27:58;8.35;;;3.10;;
75935;SDS011;64614;32.062;34.834;2023-05-08T10:30:37;6.53;;;2.95;;
75935;SDS011;64614;32.062;34.834;2023-05-08T10:33:08;4.80;;;2.80;;
75935;SDS011;64614;32.062;34.834;2023-05-08T10:35:37;6.00;;;2.90;;
75935;SDS011;64614;32.062;34.834;2023-05-08T10:38:04;5.57;;;2.72;;
75935;SDS011;64614;32.062;34.834;2023-05-08T10:40:33;6.90;;;2.90;;
75935;SDS011;64614;32.062;34.834;2023-05-08T10:42:59;6.85;;;2.90;;
75935;SDS011;64614;32.062;34.834;2023-05-08T10:45:26;9.18;;;2.88;;
75935;SDS011;64614;32.062;34.834;2023-05-08T10:50:56;6.10;;;2.47;;
75935;SDS011;64614;32.062;34.834;2023-05-08T10:58:56;7.20;;;3.10;;
75935;SDS011;64614;32.062;34.834;2023-05-08T11:01:23;4.05;;;2.20;;
75935;SDS011;64614;32.062;34.834;2023-05-08T11:03:50;4.57;;;2.35;;
75935;SDS011;64614;32.062;34.834;2023-05-08T11:06:16;3.67;;;2.17;;
75935;SDS011;64614;32.062;34.834;2023-05-08T11:09:02;4.53;;;2.50;;
75935;SDS011;64614;32.062;34.834;2023-05-08T11:11:29;3.78;;;2.20;;
75935;SDS011;64614;32.062;34.834;2023-05-08T11:19:19;3.47;;;2.25;;
75935;SDS011;64614;32.062;34.834;2023-05-08T11:24:51;4.25;;;2.20;;
75935;SDS011;64614;32.062;34.834;2023-05-08T11:40:47;4.15;;;2.10;;
75935;SDS011;64614;32.062;34.834;2023-05-08T11:43:19;3.67;;;2.10;;
75935;SDS011;64614;32.062;34.834;2023-05-08T11:45:54;2.90;;;1.80;;
75935;SDS011;64614;32.062;34.834;2023-05-08T11:48:31;2.83;;;1.90;;
75935;SDS011;64614;32.062;34.834;2023-05-08T11:51:00;3.58;;;2.00;;
75935;SDS011;64614;32.062;34.834;2023-05-08T11:53:30;4.60;;;1.90;;
75935;SDS011;64614;32.062;34.834;2023-05-08T11:55:57;4.70;;;2.00;;
75935;SDS011;64614;32.062;34.834;2023-05-08T11:58:23;5.50;;;1.80;;
75935;SDS011;64614;32.062;34.834;2023-05-08T12:00:49;3.20;;;1.80;;
75935;SDS011;64614;32.062;34.834;2023-05-08T12:03:19;5.55;;;1.80;;
75935;SDS011;64614;32.062;34.834;2023-05-08T12:05:47;4.28;;;1.88;;
75935;SDS011;64614;32.062;34.834;2023-05-08T12:08:15;3.25;;;2.00;;
75935;SDS011;64614;32.062;34.834;2023-05-08T12:13:17;3.25;;;1.67;;
75935;SDS011;64614;32.062;34.834;2023-05-08T12:15:48;3.83;;;1.90;;
75935;SDS011;64614;32.062;34.834;2023-05-08T12:18:15;2.78;;;1.75;;
75935;SDS011;64614;32.062;34.834;2023-05-08T12:20:42;3.05;;;1.70;;
75935;SDS011;64614;32.062;34.834;2023-05-08T12:23:08;4.25;;;2.17;;
75935;SDS011;64614;32.062;34.834;2023-05-08T12:25:37;3.33;;;1.83;;
75935;SDS011;64614;32.062;34.834;2023-05-08T12:28:06;3.47;;;2.03;;
75935;SDS011;64614;32.062;34.834;2023-05-08T12:30:33;3.60;;;1.63;;
75935;SDS011;64614;32.062;34.834;2023-05-08T12:32:59;3.03;;;1.75;;
75935;SDS011;64614;32.062;34.834;2023-05-08T12:35:25;2.88;;;1.70;;
75935;SDS011;64614;32.062;34.834;2023-05-08T12:37:52;3.17;;;1.77;;
75935;SDS011;64614;32.062;34.834;2023-05-08T12:40:22;3.47;;;1.90;;
75935;SDS011;64614;32.062;34.834;2023-05-08T12:42:53;4.50;;;1.80;;
75935;SDS011;64614;32.062;34.834;2023-05-08T12:45:40;3.53;;;1.60;;
75935;SDS011;64614;32.062;34.834;2023-05-08T12:48:13;5.10;;;2.00;;
75935;SDS011;64614;32.062;34.834;2023-05-08T12:50:42;5.82;;;1.85;;
75935;SDS011;64614;32.062;34.834;2023-05-08T12:53:13;4.10;;;1.90;;
75935;SDS011;64614;32.062;34.834;2023-05-08T12:55:54;4.72;;;1.63;;
75935;SDS011;64614;32.062;34.834;2023-05-08T12:58:25;4.35;;;2.05;;
75935;SDS011;64614;32.062;34.834;2023-05-08T13:00:53;3.15;;;1.70;;
75935;SDS011;64614;32.062;34.834;2023-05-08T13:03:34;4.57;;;2.03;;
75935;SDS011;64614;32.062;34.834;2023-05-08T13:05:59;5.95;;;2.50;;
75935;SDS011;64614;32.062;34.834;2023-05-08T13:08:32;5.82;;;2.42;;
75935;SDS011;64614;32.062;34.834;2023-05-08T13:11:06;6.57;;;2.80;;
75935;SDS011;64614;32.062;34.834;2023-05-08T13:13:38;6.28;;;2.97;;
75935;SDS011;64614;32.062;34.834;2023-05-08T13:16:09;7.40;;;2.92;;
75935;SDS011;64614;32.062;34.834;2023-05-08T13:18:35;7.25;;;3.15;;
75935;SDS011;64614;32.062;34.834;2023-05-08T13:21:01;6.38;;;3.10;;
75935;SDS011;64614;32.062;34.834;2023-05-08T13:23:27;7.65;;;3.78;;
75935;SDS011;64614;32.062;34.834;2023-05-08T13:25:53;7.35;;;3.70;;
75935;SDS011;64614;32.062;34.834;2023-05-08T13:28:25;7.97;;;3.60;;
75935;SDS011;64614;32.062;34.834;2023-05-08T13:30:51;7.68;;;3.47;;
75935;SDS011;64614;32.062;34.834;2023-05-08T13:38:30;8.10;;;3.63;;
75935;SDS011;64614;32.062;34.834;2023-05-08T13:40:55;7.65;;;3.30;;
75935;SDS011;64614;32.062;34.834;2023-05-08T13:43:21;7.85;;;3.55;;
75935;SDS011;64614;32.062;34.834;2023-05-08T13:45:47;7.20;;;3.47;;
75935;SDS011;64614;32.062;34.834;2023-05-08T13:50:48;7.88;;;3.70;;
75935;SDS011;64614;32.062;34.834;2023-05-08T13:53:22;7.90;;;3.58;;
75935;SDS011;64614;32.062;34.834;2023-05-08T13:58:35;8.45;;;3.83;;
75935;SDS011;64614;32.062;34.834;2023-05-08T14:01:00;9.57;;;3.95;;
75935;SDS011;64614;32.062;34.834;2023-05-08T14:03:26;8.50;;;3.88;;
75935;SDS011;64614;32.062;34.834;2023-05-08T14:08:27;10.02;;;3.95;;
75935;SDS011;64614;32.062;34.834;2023-05-08T14:10:53;8.40;;;4.10;;
75935;SDS011;64614;32.062;34.834;2023-05-08T14:23:59;8.82;;;4.07;;
75935;SDS011;64614;32.062;34.834;2023-05-08T14:26:25;7.63;;;3.83;;
75935;SDS011;64614;32.062;34.834;2023-05-08T14:28:51;6.30;;;3.50;;
75935;SDS011;64614;32.062;34.834;2023-05-08T14:31:16;7.47;;;3.58;;
75935;SDS011;64614;32.062;34.834;2023-05-08T14:33:42;6.65;;;3.40;;
75935;SDS011;64614;32.062;34.834;2023-05-08T14:36:08;6.25;;;3.20;;
75935;SDS011;64614;32.062;34.834;2023-05-08T14:38:33;7.70;;;3.53;;
75935;SDS011;64614;32.062;34.834;2023-05-08T14:40:59;7.00;;;3.70;;
75935;SDS011;64614;32.062;34.834;2023-05-08T14:43:25;6.57;;;3.55;;
75935;SDS011;64614;32.062;34.834;2023-05-08T14:45:51;7.25;;;3.58;;
75935;SDS011;64614;32.062;34.834;2023-05-08T14:48:16;5.95;;;3.60;;
75935;SDS011;64614;32.062;34.834;2023-05-08T14:50:47;6.93;;;3.30;;
75935;SDS011;64614;32.062;34.834;2023-05-08T14:55:48;7.38;;;3.40;;
75935;SDS011;64614;32.062;34.834;2023-05-08T14:58:14;5.30;;;3.10;;
75935;SDS011;64614;32.062;34.834;2023-05-08T15:00:39;7.53;;;3.90;;
75935;SDS011;64614;32.062;34.834;2023-05-08T15:03:05;5.82;;;3.25;;
75935;SDS011;64614;32.062;34.834;2023-05-08T15:05:31;6.28;;;3.58;;
75935;SDS011;64614;32.062;34.834;2023-05-08T15:07:57;6.80;;;3.08;;
75935;SDS011;64614;32.062;34.834;2023-05-08T15:10:26;6.13;;;3.38;;
75935;SDS011;64614;32.062;34.834;2023-05-08T15:12:53;7.00;;;3.33;;
75935;SDS011;64614;32.062;34.834;2023-05-08T15:15:18;6.72;;;3.25;;
75935;SDS011;64614;32.062;34.834;2023-05-08T15:17:44;8.25;;;3.50;;
75935;SDS011;64614;32.062;34.834;2023-05-08T15:20:10;9.05;;;3.75;;
75935;SDS011;64614;32.062;34.834;2023-05-08T15:22:36;8.18;;;3.47;;
75935;SDS011;64614;32.062;34.834;2023-05-08T15:25:01;7.22;;;3.65;;
75935;SDS011;64614;32.062;34.834;2023-05-08T15:27:27;6.60;;;3.47;;
75935;SDS011;64614;32.062;34.834;2023-05-08T15:29:55;7.38;;;3.80;;
75935;SDS011;64614;32.062;34.834;2023-05-08T15:32:20;6.38;;;3.22;;
75935;SDS011;64614;32.062;34.834;2023-05-08T15:34:46;5.88;;;3.33;;
75935;SDS011;64614;32.062;34.834;2023-05-08T15:37:12;5.80;;;3.20;;
75935;SDS011;64614;32.062;34.834;2023-05-08T15:39:37;6.72;;;3.53;;
75935;SDS011;64614;32.062;34.834;2023-05-08T15:42:03;7.72;;;3.70;;
75935;SDS011;64614;32.062;34.834;2023-05-08T15:44:37;5.88;;;3.45;;
75935;SDS011;64614;32.062;34.834;2023-05-08T15:47:02;5.70;;;3.30;;
75935;SDS011;64614;32.062;34.834;2023-05-08T15:49:28;5.20;;;2.95;;
75935;SDS011;64614;32.062;34.834;2023-05-08T15:51:54;5.72;;;3.20;;
75935;SDS011;64614;32.062;34.834;2023-05-08T15:54:21;7.45;;;3.50;;
75935;SDS011;64614;32.062;34.834;2023-05-08T15:56:49;9.95;;;4.20;;
75935;SDS011;64614;32.062;34.834;2023-05-08T16:07:29;9.52;;;4.07;;
75935;SDS011;64614;32.062;34.834;2023-05-08T16:09:55;8.88;;;4.25;;
75935;SDS011;64614;32.062;34.834;2023-05-08T16:12:20;9.02;;;4.13;;
75935;SDS011;64614;32.062;34.834;2023-05-08T16:14:46;9.00;;;4.18;;
75935;SDS011;64614;32.062;34.834;2023-05-08T16:17:12;8.85;;;4.28;;
75935;SDS011;64614;32.062;34.834;2023-05-08T16:19:38;7.20;;;4.18;;
75935;SDS011;64614;32.062;34.834;2023-05-08T16:22:04;9.00;;;3.80;;
75935;SDS011;64614;32.062;34.834;2023-05-08T16:24:31;8.35;;;3.75;;
75935;SDS011;64614;32.062;34.834;2023-05-08T16:26:57;7.38;;;3.60;;
75935;SDS011;64614;32.062;34.834;2023-05-08T16:29:23;7.22;;;3.78;;
75935;SDS011;64614;32.062;34.834;2023-05-08T16:34:24;7.15;;;3.53;;
75935;SDS011;64614;32.062;34.834;2023-05-08T16:36:49;7.72;;;3.25;;